Time;durP1;ratioP1;P1;durP2;ratioP2;P2;SDS_P1;SDS_P2;PMS_P1;PMS_P2;Temp;Humidity;BMP_temperature;BMP_pressure;BME280_temperature;BME280_humidity;BME280_pressure;Samples;Min_cycle;Max_cycle;Signal;HPM_P1;HPM_P2
2022/06/23 00:00:26;;;;;;;7.38;4.30;;;;;;;21.27;61.91;94331.22;5090738;28;20636;-76
2022/06/23 00:02:55;;;;;;;6.88;3.67;;;;;;;21.28;62.04;94338.28;5091259;28;20317;-75
2022/06/23 00:05:25;;;;;;;9.40;4.80;;;;;;;21.23;61.82;94330.44;5091014;28;20202;-75
2022/06/23 00:07:55;;;;;;;9.25;3.80;;;;;;;21.32;61.81;94331.97;5090874;28;20280;-74
2022/06/23 00:10:25;;;;;;;10.45;3.92;;;;;;;21.22;62.03;94334.38;5089721;28;20275;-75
2022/06/23 00:12:53;;;;;;;8.82;4.72;;;;;;;21.20;61.82;94331.25;5090313;28;20201;-74
2022/06/23 00:15:27;;;;;;;8.23;4.40;;;;;;;21.18;62.12;94336.34;5090831;28;20269;-75
2022/06/23 00:18:02;;;;;;;10.50;4.78;;;;;;;21.10;62.46;94332.06;5090540;28;20708;-75
2022/06/23 00:20:34;;;;;;;10.23;5.25;;;;;;;21.07;62.35;94327.34;5090497;28;20275;-76
2022/06/23 00:23:06;;;;;;;9.48;4.55;;;;;;;21.07;62.26;94332.84;5091907;28;20187;-71
2022/06/23 00:25:43;;;;;;;10.18;5.50;;;;;;;21.05;62.70;94335.22;5093719;28;20372;-74
2022/06/23 00:28:17;;;;;;;8.93;5.45;;;;;;;20.95;62.78;94338.81;5094244;28;20299;-75
2022/06/23 00:30:52;;;;;;;6.80;3.28;;;;;;;21.02;62.63;94333.28;5093984;28;20190;-74
2022/06/23 00:33:21;;;;;;;8.68;4.10;;;;;;;20.96;62.79;94332.13;5094425;28;20225;-76
2022/06/23 00:35:50;;;;;;;5.43;3.60;;;;;;;20.83;63.30;94311.75;5094289;28;20303;-74
2022/06/23 00:38:21;;;;;;;4.78;3.40;;;;;;;20.81;63.61;94309.38;5094065;28;20218;-76
2022/06/23 00:40:49;;;;;;;5.95;4.03;;;;;;;20.75;63.76;94296.44;5093868;28;20237;-77
2022/06/23 00:43:17;;;;;;;7.15;4.93;;;;;;;20.68;64.11;94288.22;5093267;28;20203;-78
2022/06/23 00:45:53;;;;;;;7.60;5.30;;;;;;;20.61;64.46;94272.53;5094002;28;20222;-78
2022/06/23 00:48:25;;;;;;;8.35;4.55;;;;;;;20.51;64.76;94279.63;5094096;28;20596;-77
2022/06/23 00:50:58;;;;;;;9.00;3.75;;;;;;;20.44;64.98;94300.88;5093783;28;20237;-77
2022/06/23 00:53:31;;;;;;;7.68;4.15;;;;;;;20.38;65.31;94314.25;5094024;28;20197;-77
2022/06/23 00:56:04;;;;;;;10.57;4.47;;;;;;;20.33;65.42;94311.91;5093743;28;20372;-77
2022/06/23 00:58:40;;;;;;;8.48;5.30;;;;;;;20.40;65.64;94316.63;5093536;28;20696;-78
2022/06/23 01:01:23;;;;;;;11.65;6.07;;;;;;;20.39;65.76;94320.53;5093417;28;20305;-79
2022/06/23 01:03:57;;;;;;;8.52;5.68;;;;;;;20.40;66.08;94311.91;5093980;28;20309;-78
2022/06/23 01:06:33;;;;;;;8.38;5.20;;;;;;;20.39;66.00;94310.31;5093436;28;20238;-78
2022/06/23 01:09:03;;;;;;;8.30;5.00;;;;;;;20.25;66.73;94313.09;5093831;28;20218;-78
2022/06/23 01:11:38;;;;;;;12.18;3.75;;;;;;;20.08;67.14;94308.44;5093251;28;20692;-78
2022/06/23 01:14:16;;;;;;;6.47;3.90;;;;;;;19.94;67.74;94305.69;5093312;28;20230;-78
2022/06/23 01:16:48;;;;;;;8.32;4.30;;;;;;;19.74;68.19;94297.84;5093442;28;20669;-77
2022/06/23 01:19:56;;;;;;;8.57;3.92;;;;;;;19.71;68.35;94304.13;5093445;28;20198;-77
2022/06/23 01:22:35;;;;;;;6.05;3.10;;;;;;;19.86;68.12;94293.91;5075243;28;20226;-77
2022/06/23 01:25:16;;;;;;;10.85;5.65;;;;;;;19.84;68.14;94280.56;5092529;28;20237;-77
2022/06/23 01:28:02;;;;;;;6.97;4.32;;;;;;;19.83;68.54;94278.97;5092602;28;20237;-77
2022/06/23 01:30:34;;;;;;;7.10;3.78;;;;;;;19.78;68.50;94287.66;5092910;28;20287;-77
2022/06/23 01:33:13;;;;;;;8.60;4.10;;;;;;;19.60;68.88;94286.88;5093120;28;20279;-77
2022/06/23 01:35:46;;;;;;;9.10;4.20;;;;;;;19.62;68.72;94281.78;5093330;28;20570;-78
2022/06/23 01:38:19;;;;;;;13.77;4.68;;;;;;;19.64;69.41;94282.16;5092894;28;20526;-75
2022/06/23 01:40:48;;;;;;;9.75;4.30;;;;;;;19.66;69.81;94281.78;5092323;28;20247;-77
2022/06/23 01:43:20;;;;;;;5.95;4.03;;;;;;;19.61;69.90;94279.41;5092222;28;20226;-78
2022/06/23 01:45:54;;;;;;;9.23;4.57;;;;;;;19.67;69.26;94278.63;5092439;28;20237;-78
2022/06/23 01:51:06;;;;;;;7.93;5.50;;;;;;;19.38;70.45;94277.03;5092185;28;20660;-78
2022/06/23 01:53:34;;;;;;;8.07;4.28;;;;;;;19.32;70.60;94273.09;5092135;28;20289;-78
2022/06/23 01:56:35;;;;;;;8.40;4.45;;;;;;;19.39;70.57;94259.38;5091942;28;20272;-78
2022/06/23 01:59:21;;;;;;;10.32;5.47;;;;;;;19.43;71.29;94262.88;5066848;28;20236;-78
2022/06/23 02:01:56;;;;;;;7.47;4.70;;;;;;;19.33;72.02;94260.94;5092767;28;20263;-77
2022/06/23 02:04:32;;;;;;;8.40;4.32;;;;;;;19.24;72.55;94263.28;5093119;28;20222;-78
2022/06/23 02:07:07;;;;;;;8.00;3.85;;;;;;;19.13;72.55;94247.56;5092624;28;20218;-77
2022/06/23 02:09:41;;;;;;;7.68;4.40;;;;;;;18.88;73.34;94246.75;5091693;28;20221;-77
2022/06/23 02:12:16;;;;;;;8.70;4.78;;;;;;;18.70;74.25;94251.44;5091956;28;20295;-77
2022/06/23 02:14:57;;;;;;;8.52;4.25;;;;;;;18.85;74.19;94253.06;5092149;28;20239;-77
2022/06/23 02:17:34;;;;;;;5.93;3.78;;;;;;;18.83;73.92;94252.66;5092062;28;20637;-78
2022/06/23 02:20:16;;;;;;;8.98;3.58;;;;;;;18.83;73.50;94260.88;5092515;28;20226;-78
2022/06/23 02:22:47;;;;;;;9.43;4.10;;;;;;;18.80;72.80;94250.69;5091468;28;20201;-78
2022/06/23 02:25:20;;;;;;;11.35;4.00;;;;;;;18.86;73.05;94251.09;5091801;28;20747;-78
2022/06/23 02:27:52;;;;;;;7.15;3.75;;;;;;;18.97;72.71;94249.94;5091805;28;20316;-78
2022/06/23 02:30:30;;;;;;;7.53;4.53;;;;;;;18.91;73.00;94254.22;5091991;28;20756;-78
2022/06/23 02:33:06;;;;;;;11.90;5.40;;;;;;;18.78;73.07;94261.25;5091803;28;20653;-78
2022/06/23 02:35:40;;;;;;;7.72;4.07;;;;;;;18.90;72.60;94247.16;5091866;28;20366;-77
2022/06/23 02:38:12;;;;;;;8.80;5.10;;;;;;;19.01;71.98;94255.41;5092087;28;20213;-77
2022/06/23 02:40:42;;;;;;;6.93;4.05;;;;;;;19.02;71.78;94257.75;5092050;28;20197;-78
2022/06/23 02:43:25;;;;;;;11.35;6.78;;;;;;;19.07;72.09;94265.63;5091896;28;20279;-78
2022/06/23 02:46:24;;;;;;;10.80;5.28;;;;;;;18.98;72.54;94251.50;5090812;28;20288;-78
2022/06/23 02:49:26;;;;;;;9.52;5.35;;;;;;;19.05;72.22;94273.47;5091845;28;20354;-78
2022/06/23 02:52:14;;;;;;;10.02;5.75;;;;;;;19.00;72.04;94265.59;5088985;28;20201;-76
2022/06/23 02:54:59;;;;;;;10.95;6.00;;;;;;;19.02;72.66;94276.97;5091347;28;20914;-76
2022/06/23 02:57:44;;;;;;;11.02;4.57;;;;;;;18.94;73.60;94267.16;5091639;28;20263;-76
2022/06/23 03:00:18;;;;;;;7.00;4.30;;;;;;;18.85;73.84;94275.00;5091620;28;20259;-76
2022/06/23 03:02:56;;;;;;;6.88;4.40;;;;;;;18.85;73.99;94280.50;5091207;28;20235;-76
2022/06/23 03:05:32;;;;;;;13.02;4.80;;;;;;;18.92;73.95;94283.25;5091536;28;20226;-76
2022/06/23 03:08:05;;;;;;;9.73;4.43;;;;;;;18.69;74.42;94277.31;5091524;28;20200;-76
2022/06/23 03:10:38;;;;;;;9.40;5.82;;;;;;;18.58;75.13;94276.47;5091657;28;20279;-76
2022/06/23 03:13:09;;;;;;;7.40;4.68;;;;;;;18.60;75.12;94285.09;5091232;28;20248;-78
2022/06/23 03:15:44;;;;;;;10.00;6.18;;;;;;;18.98;73.91;94278.94;5091035;28;20279;-78
2022/06/23 03:18:19;;;;;;;9.57;4.75;;;;;;;19.34;72.57;94290.75;5090811;28;20194;-76
2022/06/23 03:20:53;;;;;;;7.00;4.13;;;;;;;19.61;71.79;94282.16;5091607;28;20483;-76
2022/06/23 03:23:30;;;;;;;9.40;4.53;;;;;;;19.92;70.69;94275.84;5090978;28;20327;-76
2022/06/23 03:26:06;;;;;;;13.13;5.35;;;;;;;20.09;69.90;94274.25;5090789;28;20226;-76
2022/06/23 03:28:40;;;;;;;9.45;5.68;;;;;;;20.29;69.53;94266.31;5091360;28;20291;-78
2022/06/23 03:31:18;;;;;;;7.13;4.07;;;;;;;20.61;68.59;94267.03;5091491;28;20259;-78
2022/06/23 03:33:49;;;;;;;7.72;4.25;;;;;;;21.01;67.65;94256.56;5090887;28;20308;-76
2022/06/23 03:36:24;;;;;;;8.23;4.75;;;;;;;21.52;65.70;94253.06;5091280;28;20218;-77
2022/06/23 03:41:48;;;;;;;9.52;4.43;;;;;;;22.10;64.06;94237.59;5090957;28;20221;-76
2022/06/23 03:44:22;;;;;;;8.93;4.60;;;;;;;22.37;62.92;94235.72;5090684;28;20186;-77
2022/06/23 03:46:55;;;;;;;8.00;4.72;;;;;;;22.38;62.29;94240.03;5090493;28;20782;-77
2022/06/23 03:49:36;;;;;;;10.02;4.90;;;;;;;22.55;62.01;94241.78;5090677;28;20292;-78
2022/06/23 03:52:07;;;;;;;13.15;4.97;;;;;;;23.08;60.41;94240.34;5091021;28;20191;-75
2022/06/23 03:54:45;;;;;;;9.60;4.97;;;;;;;23.84;58.67;94241.50;5090677;28;20272;-76
2022/06/23 03:57:26;;;;;;;10.82;4.60;;;;;;;24.54;56.72;94254.47;5089765;28;20324;-76
2022/06/23 04:00:17;;;;;;;9.70;5.70;;;;;;;25.00;55.77;94259.09;5094831;28;20222;-78
2022/06/23 04:02:49;;;;;;;11.77;6.80;;;;;;;25.75;54.00;94233.19;5094750;28;20734;-78
2022/06/23 04:05:22;;;;;;;11.20;6.20;;;;;;;25.88;52.34;94244.38;5094695;28;20202;-77
2022/06/23 04:07:53;;;;;;;12.27;6.03;;;;;;;26.30;51.14;94231.38;5094145;28;20557;-78
2022/06/23 04:10:29;;;;;;;10.32;6.20;;;;;;;27.00;49.90;94244.53;5094064;28;20230;-77
2022/06/23 04:12:59;;;;;;;14.93;6.53;;;;;;;27.18;48.87;94250.34;5093921;28;20709;-77
2022/06/23 04:15:30;;;;;;;9.40;6.10;;;;;;;27.16;49.36;94250.00;5094551;28;20580;-77
2022/06/23 04:18:03;;;;;;;12.48;6.75;;;;;;;28.30;46.41;94247.91;5094175;28;20230;-78
2022/06/23 04:20:33;;;;;;;10.85;6.78;;;;;;;29.06;44.23;94243.22;5094604;28;20213;-78
2022/06/23 04:23:03;;;;;;;12.23;6.70;;;;;;;28.54;45.45;94258.63;5094369;28;20313;-78
2022/06/23 04:25:41;;;;;;;12.82;6.53;;;;;;;28.59;45.28;94255.25;5094481;28;20653;-78
2022/06/23 04:28:19;;;;;;;9.55;6.13;;;;;;;28.74;44.73;94255.53;5094266;28;20304;-78
2022/06/23 04:30:47;;;;;;;10.18;6.63;;;;;;;28.58;44.95;94262.06;5094536;28;20191;-78
2022/06/23 04:33:19;;;;;;;7.97;5.90;;;;;;;29.94;42.86;94250.09;5094318;28;20559;-79
2022/06/23 04:35:50;;;;;;;11.35;6.13;;;;;;;30.05;41.52;94239.31;5094253;28;20197;-79
2022/06/23 04:38:21;;;;;;;9.10;5.97;;;;;;;31.20;40.08;94231.06;5094397;28;20251;-79
2022/06/23 04:40:54;;;;;;;10.70;6.53;;;;;;;31.44;39.65;94234.72;5094460;28;20266;-78
2022/06/23 04:43:32;;;;;;;11.70;7.00;;;;;;;31.22;39.05;94244.59;5094385;28;20336;-77
2022/06/23 04:46:04;;;;;;;10.75;6.72;;;;;;;31.31;38.93;94236.16;5094320;28;20190;-79
2022/06/23 04:48:36;;;;;;;10.98;6.57;;;;;;;32.01;37.97;94231.97;5093718;28;20194;-79
2022/06/23 04:51:12;;;;;;;13.20;7.20;;;;;;;32.34;37.46;94223.56;5093862;28;20247;-79
2022/06/23 04:53:49;;;;;;;12.48;7.30;;;;;;;32.20;37.28;94231.91;5093949;28;20222;-78
2022/06/23 04:56:29;;;;;;;9.65;6.78;;;;;;;32.60;36.95;94231.44;5094140;28;20303;-79
2022/06/23 04:59:00;;;;;;;10.13;6.78;;;;;;;32.88;36.23;94241.22;5093303;28;20595;-78
2022/06/23 05:01:42;;;;;;;10.65;6.88;;;;;;;31.50;38.54;94248.88;5093892;28;20230;-79
2022/06/23 05:04:18;;;;;;;11.05;6.18;;;;;;;32.52;37.09;94242.28;5093602;28;20202;-79
2022/06/23 05:06:49;;;;;;;12.10;6.28;;;;;;;32.40;36.61;94235.63;5093766;28;20218;-79
2022/06/23 05:09:23;;;;;;;9.43;6.38;;;;;;;32.66;36.48;94224.72;5093072;28;20320;-80
2022/06/23 05:11:55;;;;;;;10.73;6.50;;;;;;;33.42;35.18;94220.25;5093752;28;20303;-79
2022/06/23 05:14:29;;;;;;;13.48;7.65;;;;;;;33.23;36.25;94215.28;5093535;28;20905;-79
2022/06/23 05:17:03;;;;;;;16.80;8.55;;;;;;;31.96;37.82;94229.06;5093479;28;20259;-78
2022/06/23 05:19:35;;;;;;;13.57;8.30;;;;;;;30.84;40.85;94226.31;5093091;28;20258;-78
2022/06/23 05:22:13;;;;;;;13.23;8.63;;;;;;;31.34;40.04;94224.81;5093172;28;20596;-78
2022/06/23 05:24:43;;;;;;;15.82;8.40;;;;;;;29.05;43.99;94252.81;5092774;28;20246;-77
2022/06/23 05:27:18;;;;;;;16.08;8.70;;;;;;;26.47;49.76;94264.25;5093089;28;20226;-74
2022/06/23 05:29:50;;;;;;;13.85;7.80;;;;;;;25.44;52.74;94252.91;5092850;28;20226;-80
2022/06/23 05:32:23;;;;;;;14.52;8.20;;;;;;;26.11;52.31;94225.50;5093206;28;20222;-79
2022/06/23 05:34:55;;;;;;;12.52;7.65;;;;;;;26.33;50.21;94230.53;5093661;28;20622;-80
2022/06/23 05:37:28;;;;;;;11.82;7.47;;;;;;;27.29;48.71;94250.78;5093302;28;20218;-78
2022/06/23 05:40:22;;;;;;;16.38;7.80;;;;;;;26.89;49.02;94270.63;5093444;28;20289;-79
2022/06/23 05:42:54;;;;;;;14.27;7.47;;;;;;;25.91;51.22;94266.50;5089888;28;20255;-79
2022/06/23 05:45:24;;;;;;;11.38;8.00;;;;;;;24.14;56.56;94237.03;5093045;28;20196;-79
2022/06/23 05:47:53;;;;;;;17.65;7.57;;;;;;;23.19;59.56;94271.34;5092998;28;20198;-79
2022/06/23 05:50:24;;;;;;;22.15;8.52;;;;;;;22.53;61.55;94302.19;5092299;28;20672;-79
2022/06/23 05:52:58;;;;;;;25.90;10.63;;;;;;;21.67;64.66;94331.72;5092341;28;20218;-75
2022/06/23 05:55:32;;;;;;;16.60;8.05;;;;;;;20.71;69.37;94436.06;5092031;28;20194;-77
2022/06/23 05:58:11;;;;;;;14.20;7.32;;;;;;;20.27;70.99;94643.59;5091789;28;20286;-72
2022/06/23 06:00:46;;;;;;;17.52;6.07;;;;;;;18.95;80.05;94658.56;5092578;28;20234;-77
2022/06/23 06:03:20;;;;;;;6.82;4.35;;;;;;;16.83;92.35;94597.28;5092541;28;20663;-72
2022/06/23 06:05:50;;;;;;;15.52;6.28;;;;;;;16.29;95.05;94486.25;5092501;28;20294;-72
2022/06/23 06:08:21;;;;;;;9.32;4.65;;;;;;;16.26;98.44;94519.03;5091873;28;20206;-73
2022/06/23 06:10:50;;;;;;;15.68;4.95;;;;;;;16.24;98.43;94552.19;5091941;28;20283;-71
2022/06/23 06:13:23;;;;;;;8.48;3.80;;;;;;;16.27;98.98;94547.91;5091697;28;20565;-71
2022/06/23 06:15:51;;;;;;;8.00;5.35;;;;;;;16.31;99.61;94538.63;5092512;28;20191;-70
2022/06/23 06:18:24;;;;;;;9.07;4.10;;;;;;;16.41;98.95;94530.94;5092100;28;20227;-70
2022/06/23 06:20:54;;;;;;;6.50;3.00;;;;;;;16.25;96.66;94523.69;5090980;28;20202;-70
2022/06/23 06:23:28;;;;;;;8.43;3.78;;;;;;;16.53;97.96;94506.16;5091425;28;20218;-71
2022/06/23 06:25:56;;;;;;;11.23;3.88;;;;;;;16.65;97.58;94497.78;5091896;28;20241;-71
2022/06/23 06:28:29;;;;;;;8.18;3.58;;;;;;;16.75;97.34;94479.94;5092261;28;20689;-71
2022/06/23 06:31:02;;;;;;;4.28;2.42;;;;;;;16.79;93.29;94462.41;5091461;28;20700;-71
2022/06/23 06:33:42;;;;;;;3.40;1.70;;;;;;;16.83;92.78;94444.06;5091910;28;20186;-71
2022/06/23 06:36:24;;;;;;;4.90;2.42;;;;;;;16.90;92.14;94441.44;5091947;28;20623;-72
2022/06/23 06:38:51;;;;;;;9.38;2.97;;;;;;;16.99;92.06;94435.66;5091794;28;20220;-72
2022/06/23 06:41:18;;;;;;;4.75;2.80;;;;;;;17.00;93.32;94432.56;5091771;28;20206;-72
2022/06/23 06:43:46;;;;;;;5.07;2.80;;;;;;;17.04;92.83;94427.94;5091940;28;20217;-73
2022/06/23 06:46:13;;;;;;;4.60;2.58;;;;;;;17.21;92.32;94432.03;5092003;28;20285;-73
2022/06/23 06:48:43;;;;;;;6.07;2.47;;;;;;;17.43;91.93;94416.63;5091959;28;20264;-73
2022/06/23 06:51:17;;;;;;;5.70;2.28;;;;;;;17.50;91.05;94427.63;5091927;28;20299;-73
2022/06/23 06:53:47;;;;;;;6.57;2.80;;;;;;;17.56;90.99;94397.97;5091663;28;20197;-74
2022/06/23 06:56:18;;;;;;;6.20;2.40;;;;;;;17.66;90.86;94395.34;5091747;28;20218;-73
2022/06/23 06:58:52;;;;;;;6.72;2.13;;;;;;;17.76;89.94;94391.13;5091886;28;20309;-74
2022/06/23 07:01:22;;;;;;;8.55;3.13;;;;;;;17.87;89.10;94402.19;5091293;28;20190;-73
2022/06/23 07:03:51;;;;;;;4.50;2.90;;;;;;;17.73;88.29;94405.59;5091312;28;20623;-73
2022/06/23 07:06:23;;;;;;;6.15;3.03;;;;;;;17.77;89.21;94404.44;5091686;28;20214;-75
2022/06/23 07:08:56;;;;;;;6.72;2.85;;;;;;;17.95;90.05;94404.59;5091373;28;20237;-74
2022/06/23 07:11:29;;;;;;;4.28;3.03;;;;;;;17.92;89.73;94401.81;5091275;28;20210;-74
2022/06/23 07:14:02;;;;;;;6.18;2.88;;;;;;;18.02;88.88;94409.34;5091372;28;20271;-73
2022/06/23 07:16:35;;;;;;;8.32;3.10;;;;;;;18.06;89.04;94413.66;5091450;28;20282;-73
2022/06/23 07:19:09;;;;;;;4.93;3.15;;;;;;;18.19;89.27;94400.44;5091287;28;20183;-74
2022/06/23 07:21:42;;;;;;;6.32;3.00;;;;;;;18.28;87.97;94406.41;5091082;28;20777;-74
2022/06/23 07:24:16;;;;;;;5.93;2.97;;;;;;;18.32;85.68;94398.19;5090048;28;20658;-74
2022/06/23 07:26:48;;;;;;;5.93;2.38;;;;;;;18.60;83.42;94408.56;5091377;28;20230;-74
2022/06/23 07:29:31;;;;;;;5.93;3.10;;;;;;;18.71;86.26;94417.66;5090933;28;20218;-74
2022/06/23 07:32:17;;;;;;;5.60;3.22;;;;;;;18.64;87.53;94434.06;5093958;28;20248;-73
2022/06/23 07:34:48;;;;;;;8.93;3.83;;;;;;;18.85;89.27;94428.72;5097361;28;20275;-73
2022/06/23 07:37:23;;;;;;;11.85;5.35;;;;;;;19.59;90.43;94422.69;5097943;28;20205;-73
2022/06/23 07:39:55;;;;;;;7.10;4.07;;;;;;;20.19;82.81;94435.72;5097491;28;20648;-73
2022/06/23 07:42:37;;;;;;;5.43;3.72;;;;;;;20.76;82.70;94447.47;5097999;28;20547;-72
2022/06/23 07:45:11;;;;;;;7.88;3.90;;;;;;;20.72;81.71;94448.66;5097522;28;20193;-72
2022/06/23 07:47:38;;;;;;;7.30;4.82;;;;;;;20.05;81.78;94460.47;5097624;28;20291;-71
2022/06/23 07:50:05;;;;;;;7.78;4.35;;;;;;;20.09;81.35;94455.75;5097795;28;20222;-71
2022/06/23 07:52:32;;;;;;;8.48;5.50;;;;;;;21.04;78.13;94448.59;5098013;28;20198;-72
2022/06/23 07:55:00;;;;;;;9.30;5.20;;;;;;;21.96;77.06;94448.94;5096391;28;20218;-71
2022/06/23 07:57:30;;;;;;;7.03;4.70;;;;;;;22.31;73.42;94458.94;5097511;28;20214;-72
2022/06/23 08:00:02;;;;;;;13.18;7.80;;;;;;;20.81;77.41;94469.09;5097436;28;20238;-71
2022/06/23 08:02:40;;;;;;;11.35;6.88;;;;;;;20.72;77.20;94465.97;5097651;28;20225;-71
2022/06/23 08:05:12;;;;;;;10.23;6.35;;;;;;;20.57;77.20;94454.19;5097157;28;20553;-71
2022/06/23 08:07:40;;;;;;;11.65;7.47;;;;;;;21.04;76.82;94443.84;5097781;28;20246;-71
2022/06/23 08:10:09;;;;;;;11.40;6.72;;;;;;;22.11;72.06;94448.84;5097210;28;20222;-71
2022/06/23 08:12:55;;;;;;;13.18;6.43;;;;;;;23.26;68.55;94445.38;5097613;28;20198;-71
2022/06/23 08:18:29;;;;;;;10.23;4.82;;;;;;;21.74;69.89;94447.47;5097676;28;20277;-71
2022/06/23 08:21:03;;;;;;;6.70;3.58;;;;;;;23.29;64.30;94422.44;5097766;28;20198;-71
2022/06/23 08:23:34;;;;;;;8.85;4.95;;;;;;;25.45;59.92;94418.13;5097360;28;20289;-71
2022/06/23 08:26:02;;;;;;;4.72;2.92;;;;;;;25.96;56.34;94426.22;5096688;28;20234;-72
2022/06/23 08:28:29;;;;;;;6.53;4.10;;;;;;;24.65;60.40;94433.13;5097201;28;20218;-71
2022/06/23 08:30:56;;;;;;;9.25;5.05;;;;;;;22.82;63.98;94428.94;5097488;28;20226;-71
2022/06/23 08:33:26;;;;;;;6.60;4.18;;;;;;;23.28;64.14;94420.09;5097019;28;20275;-71
2022/06/23 08:35:58;;;;;;;8.68;5.60;;;;;;;23.00;64.10;94423.97;5097202;28;20205;-71
2022/06/23 08:38:30;;;;;;;6.82;4.95;;;;;;;23.28;64.38;94423.63;5097317;28;20190;-72
2022/06/23 08:41:13;;;;;;;8.85;5.85;;;;;;;23.61;63.62;94419.31;5097475;28;20243;-72
2022/06/23 08:43:46;;;;;;;8.35;5.75;;;;;;;23.32;62.66;94418.88;5095158;28;20198;-72
2022/06/23 08:46:21;;;;;;;11.13;5.75;;;;;;;23.48;63.08;94417.47;5074027;28;20693;-72
2022/06/23 08:48:59;;;;;;;8.02;5.40;;;;;;;24.12;64.80;94414.59;5073917;28;20227;-72
2022/06/23 08:51:38;;;;;;;11.25;5.85;;;;;;;24.35;61.53;94408.31;5073574;28;20230;-71
2022/06/23 08:54:13;;;;;;;11.90;6.28;;;;;;;25.20;62.32;94401.22;5073311;28;20556;-71
2022/06/23 08:56:46;;;;;;;8.82;5.50;;;;;;;25.58;59.57;94398.06;5082247;28;20190;-72
2022/06/23 08:59:22;;;;;;;9.82;5.88;;;;;;;26.13;56.80;94400.78;5093725;28;20806;-73
2022/06/23 09:01:59;;;;;;;11.05;6.25;;;;;;;25.85;58.24;94401.44;5093635;28;20226;-72
2022/06/23 09:04:38;;;;;;;10.48;6.30;;;;;;;25.53;56.96;94401.34;5093826;28;20221;-72
2022/06/23 09:07:13;;;;;;;10.02;6.20;;;;;;;25.88;58.23;94408.91;5093185;28;20657;-72
2022/06/23 09:09:57;;;;;;;9.45;6.05;;;;;;;26.33;56.60;94397.19;5093553;28;20357;-72
2022/06/23 09:12:32;;;;;;;10.40;5.75;;;;;;;27.51;55.08;94379.69;5093511;28;20197;-74
2022/06/23 09:15:24;;;;;;;10.32;5.22;;;;;;;26.79;53.87;94385.66;5093798;28;20234;-73
2022/06/23 09:18:14;;;;;;;10.98;6.10;;;;;;;27.49;52.67;94373.78;5093577;28;20226;-73
2022/06/23 09:21:08;;;;;;;9.10;5.28;;;;;;;27.54;52.94;94375.25;5082784;28;20218;-73
2022/06/23 09:23:57;;;;;;;7.95;5.82;;;;;;;28.01;51.23;94372.63;5093045;28;20222;-73
2022/06/23 09:26:38;;;;;;;8.85;5.70;;;;;;;28.94;49.28;94373.16;5092796;28;20235;-74
2022/06/23 09:29:14;;;;;;;8.25;5.72;;;;;;;28.26;51.73;94374.66;5093040;28;20757;-73
2022/06/23 09:31:56;;;;;;;7.90;5.50;;;;;;;28.56;50.62;94356.53;5092926;28;20230;-73
2022/06/23 09:34:40;;;;;;;9.25;5.18;;;;;;;27.83;50.17;94361.25;5093111;28;20614;-73
2022/06/23 09:37:33;;;;;;;6.65;5.22;;;;;;;27.20;52.85;94357.13;5092924;28;20195;-74
2022/06/23 09:40:33;;;;;;;8.45;5.32;;;;;;;26.66;53.12;94359.00;5093434;28;20210;-74
2022/06/23 09:43:33;;;;;;;8.95;5.22;;;;;;;26.13;55.32;94352.78;5092974;28;20301;-74
2022/06/23 09:46:24;;;;;;;12.23;5.72;;;;;;;26.00;55.25;94358.25;5067335;28;20203;-74
2022/06/23 09:49:18;;;;;;;13.48;5.93;;;;;;;26.29;57.11;94363.16;5092822;28;20193;-74
2022/06/23 09:52:17;;;;;;;9.57;5.40;;;;;;;27.25;52.91;94347.47;5089877;28;20252;-74
2022/06/23 09:55:28;;;;;;;9.63;5.10;;;;;;;28.00;51.88;94332.09;5092057;28;20681;-74
2022/06/23 09:58:29;;;;;;;9.20;4.95;;;;;;;27.93;51.18;94335.09;5043358;28;20257;-75
2022/06/23 10:01:09;;;;;;;7.97;4.88;;;;;;;27.72;50.65;94339.34;5092457;28;20213;-75
2022/06/23 10:03:54;;;;;;;10.25;5.65;;;;;;;27.18;52.07;94344.91;5092302;28;20221;-74
2022/06/23 10:06:42;;;;;;;8.05;5.03;;;;;;;25.95;56.05;94349.69;5092326;28;20193;-74
2022/06/23 10:09:19;;;;;;;12.52;6.13;;;;;;;25.58;58.76;94356.44;5091431;28;20222;-75
2022/06/23 10:12:05;;;;;;;11.18;6.00;;;;;;;25.97;56.87;94359.13;5092218;28;20230;-75
2022/06/23 10:14:46;;;;;;;10.93;5.38;;;;;;;26.76;54.66;94347.63;5092511;28;20272;-75
2022/06/23 10:17:49;;;;;;;9.50;6.13;;;;;;;26.41;56.58;94348.56;5092191;28;20712;-74
2022/06/23 10:20:40;;;;;;;8.07;5.95;;;;;;;26.55;56.36;94348.19;5089857;28;20221;-74
2022/06/23 10:23:23;;;;;;;9.35;5.68;;;;;;;26.06;57.48;94362.09;5091803;28;20309;-74
2022/06/23 10:26:15;;;;;;;10.68;6.80;;;;;;;25.69;58.03;94348.72;5091959;28;20307;-74
2022/06/23 10:29:03;;;;;;;10.60;6.80;;;;;;;25.57;58.29;94335.47;5091942;28;20187;-74
2022/06/23 10:32:11;;;;;;;8.77;6.10;;;;;;;25.36;58.92;94331.97;5091942;28;20473;-75
2022/06/23 10:34:53;;;;;;;8.70;5.93;;;;;;;26.25;58.79;94324.31;5091715;28;20193;-74
2022/06/23 10:37:43;;;;;;;10.32;7.35;;;;;;;26.12;57.29;94320.69;5092083;28;20190;-74
2022/06/23 10:40:46;;;;;;;12.77;8.02;;;;;;;26.48;57.17;94309.47;5091606;28;20726;-75
2022/06/23 10:43:44;;;;;;;11.88;7.57;;;;;;;26.69;56.81;94305.34;5091888;28;20221;-76
2022/06/23 10:46:15;;;;;;;10.18;7.93;;;;;;;26.64;55.20;94306.66;5071698;28;20429;-75
2022/06/23 10:48:57;;;;;;;12.43;7.25;;;;;;;26.85;56.22;94297.72;5071389;28;20219;-74
2022/06/23 10:51:41;;;;;;;10.35;6.20;;;;;;;26.81;54.87;94299.81;5071543;28;20238;-75
2022/06/23 10:54:32;;;;;;;9.77;5.88;;;;;;;26.20;59.78;94314.53;5071311;28;20187;-75
2022/06/23 10:57:16;;;;;;;10.15;6.60;;;;;;;26.44;57.01;94303.25;5082901;28;20224;-75
2022/06/23 11:00:01;;;;;;;7.35;6.03;;;;;;;26.73;56.97;94303.25;5091230;28;20226;-75
2022/06/23 11:03:02;;;;;;;9.45;6.53;;;;;;;27.17;56.58;94304.41;5091383;28;20275;-76
2022/06/23 11:06:04;;;;;;;12.52;7.93;;;;;;;27.28;55.14;94293.72;5088222;28;20202;-76
2022/06/23 11:08:55;;;;;;;9.70;7.25;;;;;;;26.53;58.39;94293.03;5091734;28;20285;-75
2022/06/23 11:11:52;;;;;;;13.30;7.07;;;;;;;27.01;55.56;94290.56;5089386;28;20272;-76
2022/06/23 11:14:32;;;;;;;10.25;7.43;;;;;;;26.70;55.45;94291.00;5091657;28;20254;-72
2022/06/23 11:17:08;;;;;;;14.65;7.00;;;;;;;26.04;58.87;94297.88;5091667;28;20240;-76
2022/06/23 11:19:47;;;;;;;7.68;6.50;;;;;;;26.01;58.62;94304.31;5091438;28;20193;-75
2022/06/23 11:22:43;;;;;;;9.95;6.88;;;;;;;26.16;60.03;94299.16;5090991;28;20618;-75
2022/06/23 11:25:35;;;;;;;10.38;6.80;;;;;;;26.27;58.40;94293.34;5091021;28;20230;-75
2022/06/23 11:28:11;;;;;;;14.40;6.80;;;;;;;26.36;57.95;94307.44;5091135;28;20230;-75
2022/06/23 11:30:50;;;;;;;11.52;6.60;;;;;;;26.06;58.95;94305.78;5091010;28;20711;-73
2022/06/23 11:33:39;;;;;;;12.30;7.07;;;;;;;25.77;59.49;94305.69;5091042;28;20247;-73
2022/06/23 11:36:27;;;;;;;9.57;6.43;;;;;;;26.24;59.32;94316.44;5090396;28;20502;-74
2022/06/23 11:39:26;;;;;;;15.15;5.63;;;;;;;27.04;56.88;94315.50;5090162;28;20623;-75
2022/06/23 11:42:14;;;;;;;12.15;5.70;;;;;;;27.17;55.44;94309.97;5089925;28;20226;-75
2022/06/23 11:44:58;;;;;;;9.48;5.85;;;;;;;27.17;56.07;94309.97;5090764;28;20222;-75
2022/06/23 11:47:37;;;;;;;7.88;4.95;;;;;;;27.18;53.20;94317.09;5091360;28;20289;-73
2022/06/23 11:50:12;;;;;;;6.78;4.90;;;;;;;27.42;53.77;94315.56;5091132;28;20229;-75
2022/06/23 11:52:53;;;;;;;7.35;4.15;;;;;;;27.42;53.91;94325.91;5090992;28;20214;-77
2022/06/23 11:55:31;;;;;;;6.50;4.60;;;;;;;26.92;54.75;94315.44;5090549;28;20700;-75
2022/06/23 11:58:18;;;;;;;7.85;4.68;;;;;;;27.10;53.52;94327.63;5091009;28;20263;-74
2022/06/23 12:00:58;;;;;;;8.50;4.65;;;;;;;27.77;53.46;94316.47;5090560;28;20222;-74
2022/06/23 12:03:45;;;;;;;9.75;4.07;;;;;;;28.01;52.58;94322.50;5090241;28;20191;-75
2022/06/23 12:06:27;;;;;;;9.02;3.53;;;;;;;26.88;54.01;94313.53;5090385;28;20233;-72
2022/06/23 12:09:00;;;;;;;8.48;4.10;;;;;;;27.71;53.20;94303.59;5090489;28;20230;-75
2022/06/23 12:11:31;;;;;;;8.23;4.35;;;;;;;28.13;52.16;94285.50;5091123;28;20325;-74
2022/06/23 12:14:00;;;;;;;5.82;2.90;;;;;;;27.20;52.12;94264.56;5090285;28;20309;-71
2022/06/23 12:16:27;;;;;;;7.40;4.05;;;;;;;27.70;52.41;94282.53;5091146;28;20276;-75
2022/06/23 12:18:59;;;;;;;9.00;4.00;;;;;;;27.74;50.97;94286.78;5091669;28;20219;-74
2022/06/23 12:21:36;;;;;;;7.15;4.03;;;;;;;27.98;51.33;94300.31;5094437;28;20226;-75
2022/06/23 12:24:12;;;;;;;9.75;3.72;;;;;;;27.40;51.55;94284.63;5094704;28;20190;-71